Saturday, February 13, 2016
02:39 UTC
  |  Log In   |  Register Free
Airport Search:

Farmington Regional Airport
(KFAM)

Farmington Regional Airport Diagram
No Airport Diagram Available

FAA data valid effective Feb 4 2016 - Mar 31 2016 (unless otherwise noted).

 
 
 
 
 
 
 
 
 
 
 
 
 
 
Current Aviation Weather for KFAM

Weather Summary


The most recent METAR observation for FAM was updated at: 12:55 UTC
METAR for KFAM is not available. Closest METAR is for
KFAM  (most recent observation was updatred at 13:01 UTC)
130156Z AUTO 34008KT 10SM CLR M03/M10 A3043 RMK AO2 SLP333 T10281100 FZRANO

TAF for KFAM is not available.
GlobalAir.com is loading additional information.
 Current Weather at FAM
29.0 F° (-1.7 C°)

Northwest winds at 13.8 mph
Pressure:
30.41 in
Humidity:
61%
Wind:
Northwest at 13.8 mph
Dew Point:
17.1 F° (-8.3 C°)
Visibility:
10.00 mi
FAM NOAA Radar




Find All Airport Services Find A Hotel Find A Rental Car Find A Golf Course Find A Restaurant $100 Hamburger



Airport Weather Forecast for KFAM

Translated METAR for KFAM (0156 UTC)
METAR:
KFAM 130156Z AUTO 34008KT 10SM CLR M03/M10 A3043 RMK AO2 SLP333 T10281100 FZRANO
Conditions at:
KFAM (Farmington Rgnl, MO) observed 0156 UTC 12 February 2016
Temperature:
-3°C (26.6°F)
Dewpoint:
-10°C (14°F) [RH = 58.5]
Pressure:
30.43 inches Hg (1030.5 mb)
pressure at sea level is 333 in Hg
Winds:
from the NNW (340 degrees) at 9.2 mph (8 knots: 4.1 m/s)
Visibility:
10 mile(s)
Ceiling:
at least 12,000 feet AGL
Clouds:
Clear below 12,000 feet AGL
Remarks:
site is un-manned
site is automated and HAS a precipitation sensor

Translated TAF for TAF for FAM is not available. Refer to local area forecast.
FBO's on the Field
FBO Company Facility Photos Services Transportation Aviation Fuel Prices: Prices include tax
Catering Weather Repair Courtesy Rental Type 100LL JetA JetA+ MOGAS 8087
 
Farmington Regional Airport

This FBO has not yet been rated
FS:Shell
Last Updated: Jan-28
Login to update fuel prices
SS:
Contact Farmington Regional AirportMore FBO Information
 
Add another FBO Facility Photos Catering Weather Repair Courtesy Rental Type 100LL JetA JetA+ MOGAS 8087
Services Transportation Aviation Fuel Prices: Prices include tax


model-print
model-print
model-print
model-print